Time;durP1;ratioP1;P1;durP2;ratioP2;P2;SDS_P1;SDS_P2;PMS_P1;PMS_P2;Temp;Humidity;BMP_temperature;BMP_pressure;BME280_temperature;BME280_humidity;BME280_pressure;Samples;Min_cycle;Max_cycle;Signal;HPM_P1;HPM_P2
2023/11/28 00:01:49;;;;;;;10.60;8.60;;;;;;;-5.56;100.00;98940.08;88455;277;138030;-64
2023/11/28 00:03:52;;;;;;;11.70;8.40;;;;;;;-5.49;100.00;98944.86;88506;277;25083;-62
2023/11/28 00:05:55;;;;;;;11.20;7.50;;;;;;;-5.42;100.00;98944.21;88416;277;136889;-69
2023/11/28 00:08:00;;;;;;;10.00;7.80;;;;;;;-5.41;100.00;98945.79;88517;285;22618;-65
2023/11/28 00:10:06;;;;;;;11.60;8.30;;;;;;;-5.43;100.00;98940.58;88521;276;135654;-64
2023/11/28 00:12:08;;;;;;;15.30;8.90;;;;;;;-5.48;100.00;98942.38;88375;277;137090;-67
2023/11/28 00:14:10;;;;;;;12.50;8.40;;;;;;;-5.53;100.00;98942.81;88426;284;24134;-67
2023/11/28 00:16:12;;;;;;;11.20;8.00;;;;;;;-5.57;100.00;98945.33;88417;281;136424;-61
2023/11/28 00:18:14;;;;;;;10.60;8.20;;;;;;;-5.58;100.00;98948.23;88982;281;22534;-65
2023/11/28 00:20:17;;;;;;;9.40;7.60;;;;;;;-5.60;100.00;98950.77;88787;273;136232;-60
2023/11/28 00:22:19;;;;;;;10.10;8.10;;;;;;;-5.61;100.00;98953.27;88972;273;24036;-69
2023/11/28 00:24:22;;;;;;;8.90;6.70;;;;;;;-5.63;100.00;98945.17;88613;273;136171;-61
2023/11/28 00:26:24;;;;;;;8.10;7.00;;;;;;;-5.67;100.00;98948.20;88680;280;22565;-66
2023/11/28 00:28:29;;;;;;;9.60;7.40;;;;;;;-5.66;100.00;98949.01;88572;280;136276;-64
2023/11/28 00:30:31;;;;;;;10.10;6.70;;;;;;;-5.59;100.00;98948.30;88687;273;22560;-65
2023/11/28 00:32:33;;;;;;;13.40;8.90;;;;;;;-5.54;100.00;98947.56;88590;273;136555;-61
2023/11/28 00:34:35;;;;;;;12.50;8.30;;;;;;;-5.51;100.00;98943.98;88833;277;25080;-65
2023/11/28 00:36:38;;;;;;;10.30;8.20;;;;;;;-5.51;100.00;98949.02;88643;273;136277;-68
2023/11/28 00:38:40;;;;;;;10.90;7.70;;;;;;;-5.53;100.00;98947.41;88694;273;22623;-64
2023/11/28 00:40:45;;;;;;;8.60;7.10;;;;;;;-5.52;100.00;98949.13;88588;273;136033;-66
2023/11/28 00:42:47;;;;;;;10.40;7.70;;;;;;;-5.54;100.00;98948.39;88880;272;22780;-66
2023/11/28 00:44:51;;;;;;;11.50;7.50;;;;;;;-5.54;100.00;98949.25;88501;281;136075;-67
2023/11/28 00:46:52;;;;;;;10.00;6.50;;;;;;;-5.55;100.00;98950.42;88650;281;22534;-66
2023/11/28 00:48:56;;;;;;;9.00;7.90;;;;;;;-5.57;100.00;98952.61;88605;281;136143;-65
2023/11/28 00:50:58;;;;;;;10.10;7.50;;;;;;;-5.59;100.00;98957.31;88712;279;22577;-66
2023/11/28 00:53:00;;;;;;;10.80;7.90;;;;;;;-5.64;100.00;98950.73;88571;281;136473;-66
2023/11/28 00:55:02;;;;;;;12.50;8.60;;;;;;;-5.52;100.00;98961.55;88670;274;22527;-63
2023/11/28 00:57:05;;;;;;;12.30;7.90;;;;;;;-5.47;100.00;98961.34;88487;278;136834;-64
2023/11/28 00:59:08;;;;;;;10.60;8.00;;;;;;;-5.43;100.00;98960.04;88760;280;22550;-64
2023/11/28 01:01:12;;;;;;;8.80;6.90;;;;;;;-5.44;100.00;98960.27;88468;273;136306;-63
2023/11/28 01:03:15;;;;;;;9.00;6.40;;;;;;;-5.47;100.00;98968.47;88650;280;22505;-64
2023/11/28 01:05:17;;;;;;;12.20;9.00;;;;;;;-5.51;100.00;98970.52;88418;282;135549;-63
2023/11/28 01:07:20;;;;;;;10.70;7.50;;;;;;;-5.54;100.00;98977.14;88564;277;25248;-66
2023/11/28 01:09:22;;;;;;;10.70;8.50;;;;;;;-5.56;100.00;98981.84;88528;273;135935;-65
2023/11/28 01:11:26;;;;;;;9.90;7.80;;;;;;;-5.58;100.00;98984.55;88614;274;22835;-65
2023/11/28 01:13:28;;;;;;;11.20;8.50;;;;;;;-5.60;100.00;98988.00;88461;282;135775;-64
2023/11/28 01:15:30;;;;;;;10.10;6.80;;;;;;;-5.59;100.00;98990.70;88483;279;24055;-65
2023/11/28 01:17:32;;;;;;;13.80;6.60;;;;;;;-5.52;100.00;98993.40;88425;281;136656;-64
2023/11/28 01:19:36;;;;;;;8.70;6.30;;;;;;;-5.42;100.00;98993.48;88512;279;24220;-64
2023/11/28 01:21:38;;;;;;;7.30;5.60;;;;;;;-5.35;100.00;98993.33;88467;274;136312;-66
2023/11/28 01:23:40;;;;;;;12.00;7.70;;;;;;;-5.40;100.00;98989.70;88619;281;24035;-64
2023/11/28 01:25:43;;;;;;;7.80;7.10;;;;;;;-5.43;100.00;98994.66;88502;281;135910;-65
2023/11/28 01:27:47;;;;;;;6.40;5.80;;;;;;;-5.47;100.00;98995.42;88598;281;23004;-68
2023/11/28 01:29:49;;;;;;;8.60;6.60;;;;;;;-5.49;100.00;98995.61;88500;277;136307;-64
2023/11/28 01:31:53;;;;;;;9.50;8.00;;;;;;;-5.51;100.00;98997.83;88604;273;22602;-66
2023/11/28 01:33:56;;;;;;;8.20;6.50;;;;;;;-5.53;100.00;98997.70;88447;274;135536;-66
2023/11/28 01:35:58;;;;;;;10.10;7.20;;;;;;;-5.56;100.00;98988.67;88507;281;22554;-66
2023/11/28 01:38:01;;;;;;;10.60;6.40;;;;;;;-5.55;100.00;98994.03;88461;281;136064;-64
2023/11/28 01:40:03;;;;;;;8.20;6.00;;;;;;;-5.56;100.00;98996.48;88522;275;22533;-64
2023/11/28 01:42:06;;;;;;;6.50;5.10;;;;;;;-5.57;100.00;98994.65;88534;282;22854;-65
2023/11/28 01:44:08;;;;;;;5.70;4.70;;;;;;;-5.39;100.00;99007.48;88522;274;136836;-63
2023/11/28 01:46:11;;;;;;;6.30;5.40;;;;;;;-5.35;100.00;99010.46;88595;274;22527;-65
2023/11/28 01:48:14;;;;;;;7.10;5.90;;;;;;;-5.37;100.00;99010.81;88505;280;135878;-66
2023/11/28 01:50:16;;;;;;;8.80;6.10;;;;;;;-5.39;100.00;99015.79;88696;277;22529;-64
2023/11/28 01:52:19;;;;;;;8.70;5.50;;;;;;;-5.41;100.00;99014.38;88564;273;137452;-65
2023/11/28 01:54:22;;;;;;;6.70;5.50;;;;;;;-5.42;100.00;99007.02;88839;277;21694;-66
2023/11/28 01:56:24;;;;;;;6.90;5.00;;;;;;;-5.43;100.00;99020.11;88540;272;135795;-67
2023/11/28 01:58:28;;;;;;;7.00;5.10;;;;;;;-5.44;100.00;99016.03;88494;277;24328;-67
2023/11/28 02:00:30;;;;;;;8.70;5.40;;;;;;;-5.44;100.00;99018.09;88601;281;136376;-65
2023/11/28 02:02:32;;;;;;;11.20;6.60;;;;;;;-5.43;100.00;99024.22;88622;274;22544;-65
2023/11/28 02:04:34;;;;;;;8.80;5.60;;;;;;;-5.35;100.00;99026.37;88507;280;136506;-65
2023/11/28 02:06:39;;;;;;;7.40;3.90;;;;;;;-5.24;100.00;99024.16;88610;278;22534;-64
2023/11/28 02:08:41;;;;;;;5.50;3.90;;;;;;;-5.18;100.00;99021.46;88537;278;136329;-64
2023/11/28 02:10:43;;;;;;;8.20;4.50;;;;;;;-5.18;100.00;99027.12;88662;273;22628;-65
2023/11/28 02:12:46;;;;;;;5.80;4.50;;;;;;;-5.21;100.00;99025.98;88479;275;135806;-64
2023/11/28 02:14:49;;;;;;;8.20;5.70;;;;;;;-5.23;100.00;99027.05;88691;273;22548;-64
2023/11/28 02:16:53;;;;;;;6.90;5.50;;;;;;;-5.22;100.00;99027.51;88428;274;135877;-63
2023/11/28 02:18:55;;;;;;;6.90;5.50;;;;;;;-5.21;100.00;99028.73;88906;273;25271;-64
2023/11/28 02:20:59;;;;;;;6.00;5.40;;;;;;;-5.27;100.00;99016.44;88387;281;136150;-62
2023/11/28 02:23:02;;;;;;;6.00;5.10;;;;;;;-5.15;100.00;99032.46;88675;277;25084;-65
2023/11/28 02:25:05;;;;;;;5.90;3.80;;;;;;;-5.14;100.00;99030.80;88512;280;135948;-64
2023/11/28 02:27:07;;;;;;;8.00;5.90;;;;;;;-5.13;100.00;99036.95;88539;279;25187;-64
2023/11/28 02:29:09;;;;;;;6.60;5.20;;;;;;;-5.13;100.00;99037.34;88471;281;135802;-67
2023/11/28 02:31:12;;;;;;;5.70;4.40;;;;;;;-5.16;100.00;99040.14;88654;280;24167;-64
2023/11/28 02:33:15;;;;;;;8.50;6.40;;;;;;;-5.16;100.00;99043.64;88528;281;136335;-67
2023/11/28 02:35:18;;;;;;;9.60;5.70;;;;;;;-5.16;100.00;99047.58;88638;282;23755;-68
2023/11/28 02:37:24;;;;;;;6.80;5.10;;;;;;;-5.14;100.00;99043.98;88590;280;137844;-67
2023/11/28 02:39:27;;;;;;;7.50;4.70;;;;;;;-5.06;100.00;99045.44;88636;280;22527;-65
2023/11/28 02:41:29;;;;;;;9.90;5.50;;;;;;;-4.97;100.00;99045.55;88549;282;136947;-65
2023/11/28 02:43:31;;;;;;;6.40;3.80;;;;;;;-4.89;100.00;99050.02;88583;274;22775;-66
2023/11/28 02:45:33;;;;;;;6.60;5.10;;;;;;;-4.87;100.00;99045.34;88445;275;137054;-66
2023/11/28 02:47:35;;;;;;;6.20;4.70;;;;;;;-4.91;100.00;99046.84;88600;279;22587;-65
2023/11/28 02:49:37;;;;;;;5.20;4.70;;;;;;;-4.94;100.00;99047.56;88503;273;136267;-64
2023/11/28 02:51:39;;;;;;;6.90;4.90;;;;;;;-4.93;100.00;99048.06;88594;277;22541;-65
2023/11/28 02:53:41;;;;;;;5.50;4.70;;;;;;;-4.94;100.00;99047.95;88423;282;135949;-65
2023/11/28 02:55:45;;;;;;;8.80;5.80;;;;;;;-4.96;100.00;99045.98;88574;282;25083;-66
2023/11/28 02:57:47;;;;;;;6.00;5.00;;;;;;;-4.97;100.00;99051.29;88585;280;136399;-66
2023/11/28 02:59:49;;;;;;;6.80;5.50;;;;;;;-4.97;100.00;99049.09;88639;273;22533;-65
2023/11/28 03:01:54;;;;;;;7.80;5.10;;;;;;;-4.97;100.00;99048.21;88446;281;136813;-67
2023/11/28 03:03:57;;;;;;;6.00;4.80;;;;;;;-4.98;100.00;99047.55;88607;274;25083;-68
2023/11/28 03:05:59;;;;;;;8.10;6.00;;;;;;;-4.97;100.00;99049.40;88643;280;137073;-62
2023/11/28 03:08:02;;;;;;;8.50;5.70;;;;;;;-4.96;100.00;99056.27;88730;281;26292;-64
2023/11/28 03:10:06;;;;;;;8.70;6.60;;;;;;;-4.96;100.00;99056.39;88792;274;22561;-65
2023/11/28 03:12:11;;;;;;;9.10;6.70;;;;;;;-4.95;100.00;99059.46;88623;278;136483;-66
2023/11/28 03:14:13;;;;;;;;;;;;;;;-4.96;100.00;99061.61;88672;277;22525;-66
2023/11/28 03:16:16;;;;;;;7.40;4.90;;;;;;;-4.96;100.00;99062.63;88647;280;123268;-66
2023/11/28 03:18:18;;;;;;;8.40;5.10;;;;;;;-4.89;100.00;99068.86;88603;279;22550;-69
2023/11/28 03:20:20;;;;;;;10.00;5.90;;;;;;;-4.78;100.00;99072.55;88447;281;137433;-66
2023/11/28 03:22:24;;;;;;;11.20;5.10;;;;;;;-4.70;100.00;99074.34;88645;280;23010;-68
2023/11/28 03:24:26;;;;;;;6.50;5.60;;;;;;;-4.68;100.00;99067.77;88467;280;136075;-67
2023/11/28 03:26:28;;;;;;;5.10;4.60;;;;;;;-4.68;100.00;99072.27;88521;274;24101;-67
2023/11/28 03:28:30;;;;;;;6.40;5.20;;;;;;;-4.69;100.00;99071.97;88497;277;136296;-65
2023/11/28 03:30:32;;;;;;;11.30;7.30;;;;;;;-4.69;100.00;99068.14;88663;274;22530;-63
2023/11/28 03:32:35;;;;;;;11.50;8.00;;;;;;;-4.69;100.00;99063.84;88478;281;136252;-65
2023/11/28 03:34:40;;;;;;;11.50;7.70;;;;;;;-4.68;100.00;99067.27;88594;281;22540;-67
2023/11/28 03:36:43;;;;;;;11.70;8.10;;;;;;;-4.69;100.00;99068.33;88468;281;136463;-66
2023/11/28 03:38:50;;;;;;;9.50;5.90;;;;;;;-4.70;100.00;99074.81;88546;277;24282;-66
2023/11/28 03:40:52;;;;;;;11.70;6.70;;;;;;;-4.72;100.00;99079.48;88423;277;137162;-65
2023/11/28 03:42:54;;;;;;;10.60;6.40;;;;;;;-4.74;100.00;99081.90;88465;274;22547;-64
2023/11/28 03:44:57;;;;;;;11.20;7.60;;;;;;;-4.76;100.00;99084.14;88349;279;136046;-65
2023/11/28 03:47:00;;;;;;;11.50;7.60;;;;;;;-4.77;100.00;99088.70;88539;274;22474;-64
2023/11/28 03:49:02;;;;;;;10.10;6.50;;;;;;;-4.76;100.00;99083.67;88414;281;137284;-65
2023/11/28 03:51:05;;;;;;;8.10;6.10;;;;;;;-4.74;100.00;99089.34;88535;282;22540;-65
2023/11/28 03:53:07;;;;;;;15.80;6.50;;;;;;;-4.63;100.00;99091.05;88658;277;137673;-66
2023/11/28 03:55:09;;;;;;;11.40;6.70;;;;;;;-4.51;100.00;99093.27;88709;280;24015;-64
2023/11/28 03:57:12;;;;;;;8.40;6.80;;;;;;;-4.44;100.00;99097.39;88547;282;135994;-64
2023/11/28 03:59:17;;;;;;;13.20;7.60;;;;;;;-4.42;100.00;99099.66;88869;282;22537;-65
2023/11/28 04:01:19;;;;;;;10.20;7.00;;;;;;;-4.43;100.00;99105.98;88541;281;137393;-68
2023/11/28 04:03:22;;;;;;;11.50;7.60;;;;;;;-4.42;100.00;99106.80;88584;283;22535;-69
2023/11/28 04:05:24;;;;;;;9.10;7.20;;;;;;;-4.41;100.00;99109.83;88514;281;136185;-64
2023/11/28 04:07:27;;;;;;;11.80;6.90;;;;;;;-4.39;100.00;99114.02;88643;282;26093;-68
2023/11/28 04:09:30;;;;;;;9.80;6.50;;;;;;;-4.39;100.00;99112.77;88344;279;136620;-66
2023/11/28 04:11:32;;;;;;;12.00;7.80;;;;;;;-4.40;100.00;99111.48;88590;273;22777;-64
2023/11/28 04:13:34;;;;;;;11.00;7.30;;;;;;;-4.40;100.00;99115.82;88458;274;137077;-67
2023/11/28 04:15:38;;;;;;;12.00;8.10;;;;;;;-4.58;100.00;99091.71;88730;277;23330;-65
2023/11/28 04:17:40;;;;;;;11.50;7.60;;;;;;;-4.39;100.00;99123.56;88480;281;136260;-63
2023/11/28 04:19:44;;;;;;;10.50;7.40;;;;;;;-4.39;100.00;99124.77;88809;275;23342;-65
2023/11/28 04:21:50;;;;;;;11.90;9.00;;;;;;;-4.40;100.00;99132.95;88577;274;136121;-66
2023/11/28 04:23:53;;;;;;;;;;;;;;;-4.39;100.00;99138.30;88612;281;22597;-61
2023/11/28 04:25:55;;;;;;;11.30;6.80;;;;;;;-4.38;100.00;99138.69;88468;278;123655;-59
2023/11/28 04:27:57;;;;;;;9.00;7.10;;;;;;;-4.36;100.00;99138.55;88629;279;26286;-59
2023/11/28 04:29:59;;;;;;;10.40;7.00;;;;;;;-4.32;100.00;99140.00;88477;281;135638;-63
2023/11/28 04:32:03;;;;;;;10.50;6.90;;;;;;;-4.27;100.00;99137.14;88701;273;22555;-62
2023/11/28 04:34:07;;;;;;;11.60;7.90;;;;;;;-4.13;100.00;99140.66;88686;280;22558;-65
2023/11/28 04:36:12;;;;;;;16.00;9.70;;;;;;;-4.04;100.00;99135.24;88566;281;138424;-68
2023/11/28 04:38:15;;;;;;;11.20;7.50;;;;;;;-3.85;100.00;99153.37;88561;277;24331;-64
2023/11/28 04:40:17;;;;;;;12.10;8.10;;;;;;;-3.78;100.00;99155.36;88364;278;138028;-66
2023/11/28 04:42:19;;;;;;;9.00;6.60;;;;;;;-3.74;100.00;99154.14;88537;274;25151;-65
2023/11/28 04:44:22;;;;;;;10.60;7.60;;;;;;;-3.68;100.00;99158.26;88580;280;136264;-66
2023/11/28 04:46:25;;;;;;;11.00;8.10;;;;;;;-3.65;100.00;99162.11;88579;282;24459;-66
2023/11/28 04:48:27;;;;;;;8.80;6.90;;;;;;;-3.61;100.00;99160.41;88600;273;137779;-65
2023/11/28 04:50:29;;;;;;;11.90;8.60;;;;;;;-3.59;100.00;99162.66;88554;281;24027;-68
2023/11/28 04:52:31;;;;;;;10.90;8.90;;;;;;;-3.58;100.00;99163.12;88439;281;136543;-68
2023/11/28 04:54:34;;;;;;;10.10;7.70;;;;;;;-3.64;100.00;99160.69;88508;274;22637;-64
2023/11/28 04:56:36;;;;;;;12.90;9.70;;;;;;;-3.58;100.00;99174.23;88454;280;136603;-63
2023/11/28 04:58:41;;;;;;;12.50;9.20;;;;;;;-3.57;100.00;99177.13;88605;281;24690;-65
2023/11/28 05:00:44;;;;;;;14.30;8.90;;;;;;;-3.56;100.00;99179.80;88553;282;136077;-67
2023/11/28 05:02:47;;;;;;;11.40;9.20;;;;;;;-3.53;100.00;99180.79;88768;275;25093;-67
2023/11/28 05:04:49;;;;;;;11.90;8.30;;;;;;;-3.45;100.00;99181.01;88417;274;136618;-64
2023/11/28 05:06:52;;;;;;;9.90;7.40;;;;;;;-3.34;100.00;99181.77;88392;275;22558;-68
2023/11/28 05:08:55;;;;;;;12.20;9.00;;;;;;;-3.24;100.00;99182.75;88611;273;136679;-64
2023/11/28 05:10:58;;;;;;;11.70;7.90;;;;;;;-3.18;100.00;99187.75;88368;279;24044;-63
2023/11/28 05:13:02;;;;;;;10.80;7.90;;;;;;;-3.15;100.00;99189.77;88346;275;135768;-64
2023/11/28 05:15:05;;;;;;;13.50;9.30;;;;;;;-3.15;100.00;99192.22;88327;275;25171;-64
2023/11/28 05:17:07;;;;;;;13.50;9.40;;;;;;;-3.16;100.00;99195.20;88356;275;136087;-64
2023/11/28 05:19:09;;;;;;;11.90;8.90;;;;;;;-3.14;100.00;99200.09;88456;277;22543;-65
2023/11/28 05:21:12;;;;;;;13.20;9.50;;;;;;;-3.12;100.00;99197.04;88579;274;136160;-64
2023/11/28 05:23:23;;;;;;;11.10;8.30;;;;;;;-3.11;100.00;99200.27;88449;277;23781;-66
2023/11/28 05:25:25;;;;;;;12.20;9.60;;;;;;;-3.11;100.00;99196.92;88623;274;135723;-66
2023/11/28 05:27:27;;;;;;;12.60;8.90;;;;;;;-3.10;100.00;99193.89;88387;278;25166;-67
2023/11/28 05:29:29;;;;;;;11.90;9.10;;;;;;;-3.10;100.00;99193.86;88366;274;137795;-66
2023/11/28 05:31:31;;;;;;;13.90;9.30;;;;;;;-3.09;100.00;99196.63;88376;273;25574;-68
2023/11/28 05:33:33;;;;;;;12.90;8.80;;;;;;;-3.08;100.00;99199.79;88112;275;137325;-68
2023/11/28 05:35:35;;;;;;;13.70;9.40;;;;;;;-3.04;100.00;99206.95;88424;281;23756;-65
2023/11/28 05:37:38;;;;;;;12.80;8.50;;;;;;;-2.91;100.00;99207.98;88432;281;136389;-73
2023/11/28 05:39:40;;;;;;;11.40;8.10;;;;;;;-2.83;100.00;99215.06;88308;276;23718;-66
2023/11/28 05:41:43;;;;;;;11.40;8.50;;;;;;;-2.77;100.00;99217.39;88355;275;136682;-72
2023/11/28 05:43:45;;;;;;;12.80;9.30;;;;;;;-2.76;100.00;99217.96;88307;283;22531;-68
2023/11/28 05:45:50;;;;;;;12.60;10.20;;;;;;;-2.78;100.00;99216.59;88363;281;136228;-69
2023/11/28 05:47:52;;;;;;;13.20;9.00;;;;;;;-2.79;100.00;99214.94;88466;282;26447;-68
2023/11/28 05:49:54;;;;;;;12.60;10.40;;;;;;;-2.80;100.00;99216.74;88342;281;137895;-67
2023/11/28 05:51:58;;;;;;;16.20;10.40;;;;;;;-2.80;100.00;99221.30;88443;281;24018;-69
2023/11/28 05:54:00;;;;;;;14.10;8.80;;;;;;;-2.79;100.00;99220.50;88288;275;135974;-67
2023/11/28 05:56:04;;;;;;;13.00;9.70;;;;;;;-2.77;100.00;99222.93;88475;274;136773;-68
2023/11/28 05:58:06;;;;;;;16.90;10.30;;;;;;;-2.77;100.00;99225.00;88418;281;22550;-65
2023/11/28 06:00:08;;;;;;;10.00;7.80;;;;;;;-2.76;100.00;99224.23;88183;282;136931;-67
2023/11/28 06:02:18;;;;;;;12.30;9.00;;;;;;;-2.70;100.00;99226.13;88318;273;22630;-66
2023/11/28 06:04:20;;;;;;;11.50;7.50;;;;;;;-2.58;100.00;99229.80;88171;273;137133;-66
2023/11/28 06:06:22;;;;;;;12.50;8.50;;;;;;;-2.48;100.00;99234.02;88369;281;22599;-69
2023/11/28 06:08:24;;;;;;;10.80;8.50;;;;;;;-2.46;100.00;99233.48;88271;282;136866;-70
2023/11/28 06:10:27;;;;;;;11.90;9.60;;;;;;;-2.46;100.00;99234.21;88435;279;22894;-66
2023/11/28 06:12:29;;;;;;;15.80;10.30;;;;;;;-2.46;100.00;99237.17;88288;273;136660;-65
2023/11/28 06:14:32;;;;;;;13.30;9.80;;;;;;;-2.46;100.00;99244.45;89389;274;22748;-78
2023/11/28 06:16:35;;;;;;;15.30;10.50;;;;;;;-2.44;100.00;99241.00;88735;273;137178;-83
2023/11/28 06:18:37;;;;;;;13.30;11.00;;;;;;;-2.42;100.00;99243.98;88597;273;23848;-76
2023/11/28 06:20:40;;;;;;;14.40;10.70;;;;;;;-2.42;100.00;99240.62;88755;274;137736;-89
2023/11/28 06:22:43;;;;;;;18.30;12.10;;;;;;;-2.42;100.00;99245.13;89159;274;22537;-87
2023/11/28 06:24:44;;;;;;;14.10;10.10;;;;;;;-2.41;100.00;99247.88;88960;279;140829;-77
2023/11/28 06:26:46;;;;;;;16.10;11.20;;;;;;;-2.31;100.00;99251.19;89023;277;25177;-85
2023/11/28 06:28:48;;;;;;;15.70;11.10;;;;;;;-2.14;100.00;99249.71;88700;274;139066;-85
2023/11/28 06:30:50;;;;;;;11.60;9.10;;;;;;;-2.03;100.00;99245.96;88484;277;25293;-82
2023/11/28 06:32:53;;;;;;;16.30;11.10;;;;;;;-2.00;100.00;99243.48;88421;273;137884;-78
2023/11/28 06:34:55;;;;;;;16.90;12.70;;;;;;;-2.01;100.00;99243.71;89096;273;23283;-77
2023/11/28 06:36:57;;;;;;;16.50;12.10;;;;;;;-2.02;100.00;99241.66;88608;274;137007;-68
2023/11/28 06:38:59;;;;;;;14.20;11.60;;;;;;;-2.00;100.00;99246.26;88343;274;26261;-69
2023/11/28 06:41:01;;;;;;;15.90;11.80;;;;;;;-2.00;100.00;99244.12;88582;275;136694;-75
2023/11/28 06:43:03;;;;;;;17.80;11.10;;;;;;;-2.00;100.00;99240.64;88420;274;25214;-72
2023/11/28 06:45:06;;;;;;;16.20;11.70;;;;;;;-1.98;100.00;99239.09;88328;273;136442;-73
2023/11/28 06:47:09;;;;;;;17.70;12.10;;;;;;;-1.98;100.00;99239.61;88589;273;22552;-77
2023/11/28 06:49:11;;;;;;;18.00;12.50;;;;;;;-1.99;100.00;99239.39;88380;273;136291;-76
2023/11/28 06:51:13;;;;;;;19.10;12.40;;;;;;;-1.98;100.00;99241.38;88566;277;23058;-76
2023/11/28 06:53:15;;;;;;;14.30;10.60;;;;;;;-1.88;100.00;99236.30;88756;273;136987;-75
2023/11/28 06:55:18;;;;;;;16.30;12.10;;;;;;;-1.76;100.00;99228.27;88626;273;25427;-72
2023/11/28 06:57:24;;;;;;;19.20;13.40;;;;;;;-1.68;100.00;99230.84;88485;273;137171;-74
2023/11/28 06:59:26;;;;;;;16.30;11.90;;;;;;;-1.67;100.00;99234.26;88638;274;25402;-79
2023/11/28 07:01:28;;;;;;;18.40;13.00;;;;;;;-1.71;100.00;99237.29;88176;273;136761;-72
2023/11/28 07:03:32;;;;;;;20.50;14.60;;;;;;;-1.76;100.00;99235.23;88429;277;22545;-78
2023/11/28 07:05:34;;;;;;;20.90;14.60;;;;;;;-1.78;100.00;99239.74;88276;273;137544;-77
2023/11/28 07:07:36;;;;;;;21.20;15.50;;;;;;;-1.78;100.00;99243.02;88252;279;25124;-76
2023/11/28 07:09:43;;;;;;;22.60;14.80;;;;;;;-1.78;100.00;99244.94;88284;281;136470;-74
2023/11/28 07:11:45;;;;;;;21.00;15.20;;;;;;;-1.71;100.00;99247.05;88572;275;22519;-71
2023/11/28 07:13:47;;;;;;;23.40;16.70;;;;;;;-1.58;100.00;99248.31;88184;274;137549;-77
2023/11/28 07:15:50;;;;;;;24.80;16.60;;;;;;;-1.48;100.00;99251.73;88424;282;25091;-76
2023/11/28 07:17:52;;;;;;;21.80;15.20;;;;;;;-1.48;100.00;99256.10;88410;274;137398;-71
2023/11/28 07:19:55;;;;;;;22.20;15.40;;;;;;;-1.49;100.00;99255.83;88609;281;24295;-77
2023/11/28 07:21:57;;;;;;;25.20;17.70;;;;;;;-1.53;100.00;99248.86;88303;281;137754;-75
2023/11/28 07:23:59;;;;;;;25.70;17.50;;;;;;;-1.52;100.00;99255.02;88364;282;22539;-74
2023/11/28 07:26:01;;;;;;;22.90;16.20;;;;;;;-1.53;100.00;99260.38;88208;282;136138;-75
2023/11/28 07:28:04;;;;;;;29.20;17.80;;;;;;;-1.51;100.00;99259.67;88296;281;136603;-72
2023/11/28 07:30:07;;;;;;;22.10;15.80;;;;;;;-1.47;100.00;99266.60;88480;274;22549;-75
2023/11/28 07:32:09;;;;;;;24.90;16.80;;;;;;;-1.39;100.00;99269.73;88766;273;137435;-80
2023/11/28 07:34:11;;;;;;;22.40;15.10;;;;;;;-1.40;100.00;99270.30;88828;274;24219;-76
2023/11/28 07:36:14;;;;;;;20.50;16.20;;;;;;;-1.48;100.00;99274.34;88812;275;137783;-74
2023/11/28 07:38:17;;;;;;;24.60;17.20;;;;;;;-1.54;100.00;99273.90;88406;273;23745;-76
2023/11/28 07:40:19;;;;;;;22.50;16.40;;;;;;;-1.65;100.00;99261.65;88330;273;136493;-77
2023/11/28 07:42:21;;;;;;;19.40;15.70;;;;;;;-1.55;100.00;99274.63;88481;274;22550;-77
2023/11/28 07:44:24;;;;;;;25.40;16.80;;;;;;;-1.54;100.00;99279.64;88277;274;136682;-75
2023/11/28 07:46:27;;;;;;;19.80;14.90;;;;;;;-1.47;100.00;99282.52;88261;277;546766;-79
2023/11/28 07:48:29;;;;;;;20.60;16.20;;;;;;;-1.39;100.00;99274.13;88307;274;137603;-78
2023/11/28 07:50:31;;;;;;;27.40;17.00;;;;;;;-1.22;100.00;99281.44;88513;281;22537;-81
2023/11/28 07:52:34;;;;;;;21.80;16.10;;;;;;;-1.19;100.00;99283.60;88534;281;137959;-77
2023/11/28 07:54:37;;;;;;;20.80;15.80;;;;;;;-1.16;100.00;99283.23;88709;284;22562;-79
2023/11/28 07:56:41;;;;;;;21.60;15.90;;;;;;;-1.12;100.00;99282.11;88534;281;136465;-79
2023/11/28 07:58:43;;;;;;;20.90;16.10;;;;;;;-1.02;100.00;99275.86;88667;275;22539;-79
2023/11/28 08:00:45;;;;;;;23.60;17.00;;;;;;;-0.93;100.00;99276.76;88720;273;136427;-76
2023/11/28 08:02:47;;;;;;;19.70;15.50;;;;;;;-0.86;100.00;99279.90;88750;283;22537;-70
2023/11/28 08:04:49;;;;;;;22.20;16.10;;;;;;;-0.80;100.00;99282.18;88848;280;136694;-68
2023/11/28 08:06:52;;;;;;;20.50;15.60;;;;;;;-0.75;100.00;99280.90;88458;273;22550;-70
2023/11/28 08:08:54;;;;;;;20.20;15.10;;;;;;;-0.72;100.00;99281.50;88348;277;136474;-69
2023/11/28 08:10:56;;;;;;;23.70;15.80;;;;;;;-0.70;100.00;99277.95;88406;282;25197;-69
2023/11/28 08:12:58;;;;;;;21.10;14.70;;;;;;;-0.63;100.00;99277.98;88194;281;136656;-69
2023/11/28 08:15:00;;;;;;;16.90;13.30;;;;;;;-0.54;100.00;99270.17;88439;281;22543;-70
2023/11/28 08:17:02;;;;;;;16.10;13.80;;;;;;;-0.46;100.00;99275.95;88305;281;136348;-69
2023/11/28 08:19:04;;;;;;;18.30;13.40;;;;;;;-0.50;100.00;99275.63;88297;278;22536;-69
2023/11/28 08:21:07;;;;;;;19.40;14.60;;;;;;;-0.57;100.00;99271.70;88308;280;136402;-67
2023/11/28 08:23:10;;;;;;;18.60;15.50;;;;;;;-0.58;100.00;99275.65;88426;273;21469;-68
2023/11/28 08:25:12;;;;;;;19.10;15.30;;;;;;;-0.57;100.00;99276.25;88297;282;136093;-67
2023/11/28 08:27:17;;;;;;;20.90;15.20;;;;;;;-0.63;100.00;99267.86;88261;281;22607;-66
2023/11/28 08:29:19;;;;;;;20.00;15.70;;;;;;;-0.64;100.00;99271.59;88134;273;136215;-68
2023/11/28 08:31:22;;;;;;;21.40;16.20;;;;;;;-0.65;100.00;99268.23;88240;273;22882;-68
2023/11/28 08:33:24;;;;;;;25.00;17.10;;;;;;;-0.66;100.00;99266.81;88176;281;136422;-65
2023/11/28 08:35:26;;;;;;;21.10;16.60;;;;;;;-0.69;100.00;99258.83;88209;281;25095;-68
2023/11/28 08:37:28;;;;;;;21.10;14.20;;;;;;;-0.69;100.00;99262.86;88133;278;137342;-65
2023/11/28 08:39:30;;;;;;;18.90;15.00;;;;;;;-0.66;100.00;99264.30;88411;281;22840;-69
2023/11/28 08:41:32;;;;;;;17.00;14.40;;;;;;;-0.49;100.00;99266.45;88050;281;137193;-69
2023/11/28 08:43:35;;;;;;;22.00;14.00;;;;;;;-0.34;100.00;99267.13;88360;273;25232;-67
2023/11/28 08:45:37;;;;;;;19.80;14.60;;;;;;;-0.28;100.00;99267.64;88686;274;136229;-68
2023/11/28 08:47:40;;;;;;;23.20;17.00;;;;;;;-0.25;100.00;99268.16;88443;282;25121;-63
2023/11/28 08:49:44;;;;;;;26.10;17.30;;;;;;;-0.21;100.00;99265.69;88673;281;136574;-65
2023/11/28 08:51:46;;;;;;;22.00;15.40;;;;;;;-0.17;100.00;99259.39;88614;273;22540;-69
2023/11/28 08:53:48;;;;;;;19.80;16.60;;;;;;;-0.14;100.00;99259.68;88390;274;137764;-69
2023/11/28 08:55:50;;;;;;;20.40;16.60;;;;;;;-0.13;100.00;99255.67;88434;274;25213;-69
2023/11/28 08:57:52;;;;;;;21.40;17.20;;;;;;;-0.11;100.00;99258.54;88370;274;136498;-64
2023/11/28 08:59:54;;;;;;;20.70;15.60;;;;;;;-0.11;100.00;99254.12;88420;274;25121;-68
2023/11/28 09:01:56;;;;;;;20.20;16.00;;;;;;;-0.07;100.00;99255.16;88885;277;136899;-66
2023/11/28 09:04:00;;;;;;;20.00;15.20;;;;;;;-0.03;100.00;99251.27;88323;274;25138;-68
2023/11/28 09:06:03;;;;;;;25.40;16.90;;;;;;;-0.01;100.00;99253.38;88643;273;136330;-69
2023/11/28 09:08:05;;;;;;;23.60;15.50;;;;;;;-0.03;100.00;99255.78;88369;274;137646;-68
2023/11/28 09:10:07;;;;;;;23.80;17.20;;;;;;;-0.05;100.00;99257.55;88416;273;22553;-68
2023/11/28 09:12:09;;;;;;;28.00;17.60;;;;;;;-0.08;100.00;99262.60;88294;274;136177;-70
2023/11/28 09:14:11;;;;;;;27.00;16.80;;;;;;;-0.13;100.00;99260.60;88389;273;25160;-69
2023/11/28 09:16:16;;;;;;;25.00;18.40;;;;;;;-0.23;100.00;99250.37;88540;282;136592;-68
2023/11/28 09:18:19;;;;;;;24.70;15.60;;;;;;;-0.17;100.00;99264.52;88420;277;25164;-70
2023/11/28 09:20:22;;;;;;;23.30;16.30;;;;;;;-0.26;100.00;99267.06;88251;274;136634;-70
2023/11/28 09:22:24;;;;;;;25.30;18.20;;;;;;;-0.35;100.00;99268.49;88416;273;22534;-70
2023/11/28 09:24:28;;;;;;;28.20;19.00;;;;;;;-0.41;100.00;99265.65;89220;273;136490;-68
2023/11/28 09:26:31;;;;;;;25.80;17.10;;;;;;;-0.39;100.00;99269.84;88436;274;22541;-70
2023/11/28 09:28:34;;;;;;;22.50;15.70;;;;;;;-0.26;100.00;99267.56;88403;275;137584;-71